createdAt,value
2023-03-30T00:01:10.806Z,53.20
2023-03-30T00:03:39.218Z,52.50
2023-03-30T00:06:07.424Z,52.10
2023-03-30T00:08:34.373Z,52.50
2023-03-30T00:11:02.464Z,52.30
2023-03-30T00:13:30.598Z,52.60
2023-03-30T00:15:57.738Z,52.60
2023-03-30T00:18:24.957Z,52.50
2023-03-30T00:20:52.566Z,52.50
2023-03-30T00:23:20.317Z,52.30
2023-03-30T00:25:47.234Z,52.70
2023-03-30T00:28:14.316Z,52.70
2023-03-30T00:30:41.796Z,52.80
2023-03-30T00:33:08.548Z,53.10
2023-03-30T00:35:35.436Z,53.50
2023-03-30T00:38:03.343Z,53.40
2023-03-30T00:40:32.545Z,53.70
2023-03-30T00:43:07.795Z,54.00
2023-03-30T00:45:36.719Z,54.70
2023-03-30T00:48:24.038Z,54.30
2023-03-30T00:50:58.753Z,54.00
2023-03-30T00:53:35.204Z,53.80
2023-03-30T00:56:04.795Z,53.80
2023-03-30T00:58:32.081Z,53.70
2023-03-30T01:01:02.100Z,54.00
2023-03-30T01:03:33.047Z,54.60
2023-03-30T01:06:02.328Z,54.90
2023-03-30T01:08:33.632Z,54.90
2023-03-30T01:11:02.326Z,54.80
2023-03-30T01:13:32.187Z,54.80
2023-03-30T01:16:29.232Z,54.60
2023-03-30T01:18:59.605Z,54.00
2023-03-30T01:21:41.423Z,53.80
2023-03-30T01:24:23.874Z,53.40
2023-03-30T01:27:02.364Z,52.50
2023-03-30T01:29:34.311Z,52.00
2023-03-30T01:32:25.469Z,51.60
2023-03-30T01:35:18.426Z,51.20
2023-03-30T01:38:11.521Z,50.50
2023-03-30T01:41:05.171Z,50.10
2023-03-30T01:43:48.037Z,50.00
2023-03-30T01:46:25.141Z,49.80
2023-03-30T01:49:30.054Z,49.70
2023-03-30T01:52:14.981Z,49.50
2023-03-30T01:54:48.047Z,49.60
2023-03-30T01:57:28.078Z,49.60
2023-03-30T02:00:13.184Z,50.90
2023-03-30T02:02:44.701Z,53.20
2023-03-30T02:05:15.787Z,55.40
2023-03-30T02:07:47.240Z,55.80
2023-03-30T02:10:16.271Z,57.20
2023-03-30T02:12:44.928Z,57.70
2023-03-30T02:15:14.399Z,58.40
2023-03-30T02:17:42.423Z,58.50
2023-03-30T02:20:10.898Z,58.90
2023-03-30T02:22:37.769Z,58.70
2023-03-30T02:25:05.658Z,58.50
2023-03-30T02:27:33.834Z,58.70
2023-03-30T02:30:00.723Z,58.90
2023-03-30T02:33:00.580Z,58.70
2023-03-30T02:35:55.552Z,58.40
2023-03-30T02:38:54.295Z,58.70
2023-03-30T02:42:01.371Z,58.70
2023-03-30T02:44:59.598Z,59.40
2023-03-30T02:47:56.158Z,59.60
2023-03-30T02:50:33.453Z,60.30
2023-03-30T02:53:29.450Z,60.70
2023-03-30T02:56:15.091Z,60.30
2023-03-30T02:58:49.450Z,60.30
2023-03-30T03:01:18.726Z,61.40
2023-03-30T03:03:49.053Z,63.70
2023-03-30T03:06:16.405Z,65.30
2023-03-30T03:08:47.540Z,66.30
2023-03-30T03:11:14.306Z,69.20
2023-03-30T03:13:41.175Z,70.00
2023-03-30T03:16:13.228Z,71.60
2023-03-30T03:18:41.672Z,71.90
2023-03-30T03:21:09.757Z,72.50
2023-03-30T03:23:37.044Z,74.70
2023-03-30T03:26:04.733Z,75.70
2023-03-30T03:28:31.862Z,76.40
2023-03-30T03:30:59.932Z,77.90
2023-03-30T03:33:27.572Z,79.80
2023-03-30T03:35:54.997Z,80.00
2023-03-30T03:38:22.303Z,81.00
2023-03-30T03:40:53.330Z,82.30
2023-03-30T03:43:21.190Z,83.90
2023-03-30T03:45:48.951Z,85.20
2023-03-30T03:48:18.062Z,87.60
2023-03-30T03:50:45.354Z,89.30
2023-03-30T03:53:12.545Z,90.90
2023-03-30T03:55:39.297Z,91.60
2023-03-30T03:58:07.454Z,92.50
2023-03-30T04:00:34.800Z,93.40
2023-03-30T04:03:02.105Z,94.20
2023-03-30T04:05:29.423Z,94.80
2023-03-30T04:07:56.863Z,95.10
2023-03-30T04:10:23.949Z,95.30
2023-03-30T04:12:50.786Z,95.50
2023-03-30T04:15:17.747Z,95.70
2023-03-30T04:17:47.291Z,95.70
2023-03-30T04:20:15.415Z,95.90
2023-03-30T04:22:42.439Z,96.10
2023-03-30T04:25:11.613Z,96.30
2023-03-30T04:27:38.607Z,96.50
2023-03-30T04:30:06.006Z,96.60
2023-03-30T04:32:38.905Z,97.20
2023-03-30T04:35:07.176Z,97.70
2023-03-30T04:37:35.230Z,98.00
2023-03-30T04:40:08.017Z,98.50
2023-03-30T04:42:37.826Z,98.70
2023-03-30T04:45:06.121Z,98.70
2023-03-30T04:47:33.292Z,98.70
2023-03-30T04:50:01.176Z,99.20
2023-03-30T04:52:28.211Z,99.30
2023-03-30T04:54:55.443Z,99.40
2023-03-30T04:57:22.255Z,99.70
2023-03-30T04:59:49.102Z,99.90
2023-03-30T05:02:16.551Z,99.90
2023-03-30T05:04:43.360Z,99.90
2023-03-30T05:07:10.670Z,99.90
2023-03-30T05:09:37.437Z,99.90
2023-03-30T05:12:04.792Z,99.90
2023-03-30T05:14:31.584Z,99.90
2023-03-30T05:16:58.930Z,99.90
2023-03-30T05:19:25.970Z,99.90
2023-03-30T05:21:53.718Z,99.90
2023-03-30T05:24:20.667Z,99.90
2023-03-30T05:26:47.401Z,99.90
2023-03-30T05:29:14.183Z,99.90
2023-03-30T05:31:41.018Z,99.90
2023-03-30T05:34:07.848Z,99.90
2023-03-30T05:36:35.438Z,99.90
2023-03-30T05:39:05.038Z,99.90
2023-03-30T05:41:31.937Z,99.90
2023-03-30T05:43:58.820Z,99.90
2023-03-30T05:46:26.271Z,99.90
2023-03-30T05:48:53.021Z,99.90
2023-03-30T05:51:19.737Z,99.90
2023-03-30T05:53:47.314Z,99.90
2023-03-30T05:56:14.173Z,99.90
2023-03-30T05:58:40.869Z,99.90
2023-03-30T06:01:09.356Z,99.90
2023-03-30T06:03:36.336Z,99.90
2023-03-30T06:06:03.456Z,99.90
2023-03-30T06:08:30.472Z,99.90
2023-03-30T06:10:57.844Z,99.90
2023-03-30T06:13:25.289Z,99.90
2023-03-30T06:15:52.331Z,99.90
2023-03-30T06:18:19.194Z,99.90
2023-03-30T06:20:49.804Z,99.90
2023-03-30T06:23:16.650Z,99.90
2023-03-30T06:25:52.570Z,99.90
2023-03-30T06:28:20.555Z,99.90
2023-03-30T06:30:49.216Z,99.90
2023-03-30T06:33:16.716Z,99.90
2023-03-30T06:35:48.522Z,99.90
2023-03-30T06:38:16.164Z,99.90
2023-03-30T06:40:43.255Z,99.90
2023-03-30T06:43:17.190Z,99.90
2023-03-30T06:45:49.197Z,98.90
2023-03-30T06:48:15.943Z,97.60
2023-03-30T06:50:45.099Z,96.70
2023-03-30T06:53:11.823Z,96.00
2023-03-30T06:55:38.576Z,95.50
2023-03-30T06:58:05.329Z,95.60
2023-03-30T07:00:32.094Z,95.40
2023-03-30T07:02:59.049Z,94.50
2023-03-30T07:05:28.628Z,94.10
2023-03-30T07:07:56.042Z,93.50
2023-03-30T07:10:23.014Z,93.50
2023-03-30T07:12:49.742Z,93.30
2023-03-30T07:15:16.785Z,93.50
2023-03-30T07:17:44.164Z,93.50
2023-03-30T07:20:14.931Z,93.20
2023-03-30T07:22:42.525Z,93.20
2023-03-30T07:25:10.183Z,93.10
2023-03-30T07:27:38.132Z,93.50
2023-03-30T07:30:20.564Z,93.50
2023-03-30T07:32:50.525Z,94.10
2023-03-30T07:35:17.868Z,94.50
2023-03-30T07:37:44.631Z,94.60
2023-03-30T07:40:12.823Z,95.10
2023-03-30T07:42:39.747Z,95.30
2023-03-30T07:45:07.283Z,95.20
2023-03-30T07:47:34.173Z,95.50
2023-03-30T07:50:01.070Z,95.80
2023-03-30T07:52:28.063Z,95.10
2023-03-30T07:54:55.343Z,95.00
2023-03-30T07:57:22.629Z,94.10
2023-03-30T07:59:49.617Z,94.20
2023-03-30T08:02:17.440Z,93.70
2023-03-30T08:04:44.703Z,93.00
2023-03-30T08:07:12.836Z,91.90
2023-03-30T08:09:39.602Z,92.10
2023-03-30T08:12:06.851Z,92.50
2023-03-30T08:14:33.668Z,92.60
2023-03-30T08:17:00.730Z,92.20
2023-03-30T08:19:28.629Z,91.80
2023-03-30T08:21:56.991Z,91.60
2023-03-30T08:24:24.045Z,90.80
2023-03-30T08:26:50.966Z,91.50
2023-03-30T08:29:18.850Z,92.20
2023-03-30T08:31:45.957Z,93.00
2023-03-30T08:34:12.863Z,92.90
2023-03-30T08:36:39.690Z,92.90
2023-03-30T08:39:06.445Z,91.70
2023-03-30T08:41:44.138Z,90.20
2023-03-30T08:44:25.893Z,89.90
2023-03-30T08:46:53.784Z,86.80
2023-03-30T08:49:21.317Z,85.90
2023-03-30T08:51:51.131Z,85.60
2023-03-30T08:54:21.073Z,84.40
2023-03-30T08:57:13.339Z,84.80
2023-03-30T09:00:01.777Z,83.40
2023-03-30T09:02:37.963Z,82.50
2023-03-30T09:05:10.786Z,79.80
2023-03-30T09:08:06.453Z,76.40
2023-03-30T09:10:45.219Z,75.90
2023-03-30T09:13:18.557Z,74.90
2023-03-30T09:16:05.616Z,73.70
2023-03-30T09:18:35.363Z,74.10
2023-03-30T09:21:06.325Z,74.00
2023-03-30T09:23:34.002Z,74.90
2023-03-30T09:26:22.085Z,75.30
2023-03-30T09:29:10.662Z,74.60
2023-03-30T09:31:47.683Z,74.40
2023-03-30T09:34:31.416Z,74.70
2023-03-30T09:37:06.029Z,74.70
2023-03-30T09:39:36.354Z,73.40
2023-03-30T09:42:15.169Z,72.80
2023-03-30T09:44:56.517Z,74.00
2023-03-30T09:47:26.334Z,72.00
2023-03-30T09:50:10.184Z,71.00
2023-03-30T09:52:40.512Z,68.80
2023-03-30T09:55:22.639Z,68.70
2023-03-30T09:57:51.116Z,68.20
2023-03-30T10:00:32.417Z,69.40
2023-03-30T10:03:03.803Z,70.90
2023-03-30T10:05:35.657Z,71.20
2023-03-30T10:08:19.460Z,72.50
2023-03-30T10:10:52.802Z,73.40
2023-03-30T10:13:19.950Z,74.40
2023-03-30T10:15:51.612Z,74.00
2023-03-30T10:18:18.366Z,73.70
2023-03-30T10:21:01.053Z,72.80
2023-03-30T10:23:33.463Z,72.20
2023-03-30T10:26:04.568Z,73.30
2023-03-30T10:28:34.030Z,75.40
2023-03-30T10:31:13.670Z,75.40
2023-03-30T10:33:44.037Z,75.60
2023-03-30T10:36:13.680Z,75.50
2023-03-30T10:38:42.053Z,74.80
2023-03-30T10:41:21.058Z,75.10
2023-03-30T10:43:49.461Z,78.70
2023-03-30T10:46:23.182Z,79.80
2023-03-30T10:49:34.426Z,81.20
2023-03-30T10:52:10.631Z,81.80
2023-03-30T10:54:40.133Z,83.50
2023-03-30T10:57:24.329Z,85.60
2023-03-30T11:00:22.349Z,86.40
2023-03-30T11:03:16.981Z,86.50
2023-03-30T11:05:49.080Z,87.00
2023-03-30T11:08:20.652Z,86.20
2023-03-30T11:10:50.141Z,87.20
2023-03-30T11:13:30.478Z,85.20
2023-03-30T11:16:02.343Z,85.10
2023-03-30T11:18:36.908Z,86.10
2023-03-30T11:21:27.144Z,86.80
2023-03-30T11:23:55.370Z,88.80
2023-03-30T11:26:57.219Z,90.50
2023-03-30T11:30:01.804Z,92.00
2023-03-30T11:32:47.164Z,93.20
2023-03-30T11:35:26.156Z,93.90
2023-03-30T11:38:09.618Z,95.00
2023-03-30T11:40:46.433Z,94.80
2023-03-30T11:43:18.430Z,94.80
2023-03-30T11:46:09.901Z,94.00
2023-03-30T11:49:07.588Z,94.50
2023-03-30T11:52:08.448Z,94.60
2023-03-30T11:55:12.361Z,94.80
2023-03-30T11:58:04.120Z,93.80
2023-03-30T12:00:43.608Z,94.20
2023-03-30T12:03:17.904Z,94.20
2023-03-30T12:05:56.162Z,93.70
2023-03-30T12:08:56.475Z,93.90
2023-03-30T12:11:32.318Z,94.20
2023-03-30T12:14:00.938Z,95.00
2023-03-30T12:16:49.429Z,93.10
2023-03-30T12:19:29.480Z,92.60
2023-03-30T12:22:04.694Z,92.00
2023-03-30T12:24:58.012Z,91.10
2023-03-30T12:27:27.352Z,91.10
2023-03-30T12:32:28.787Z,88.80
2023-03-30T12:34:57.516Z,89.80
2023-03-30T12:37:28.342Z,87.80
2023-03-30T12:40:12.350Z,86.50
2023-03-30T12:42:46.916Z,85.20
2023-03-30T12:45:13.944Z,83.70
2023-03-30T12:47:59.604Z,83.70
2023-03-30T12:50:50.863Z,81.60
2023-03-30T12:53:36.252Z,82.30
2023-03-30T12:56:16.962Z,84.00
2023-03-30T12:59:31.532Z,83.90
2023-03-30T13:02:12.935Z,84.90
2023-03-30T13:04:44.073Z,85.70
2023-03-30T13:07:17.492Z,87.20
2023-03-30T13:09:57.945Z,87.20
2023-03-30T13:12:27.657Z,86.60
2023-03-30T13:15:00.732Z,88.20
2023-03-30T13:17:27.641Z,89.10
2023-03-30T13:20:26.075Z,90.10
2023-03-30T13:23:09.693Z,90.00
2023-03-30T13:26:15.168Z,90.40
2023-03-30T13:29:07.932Z,90.50
2023-03-30T13:31:40.766Z,90.30
2023-03-30T13:34:19.117Z,90.90
2023-03-30T13:37:09.199Z,90.70
2023-03-30T13:39:52.797Z,90.90
2023-03-30T13:42:35.496Z,91.60
2023-03-30T13:45:24.871Z,91.80
2023-03-30T13:47:51.611Z,92.20
2023-03-30T13:50:31.274Z,92.40
2023-03-30T13:53:01.063Z,92.10
2023-03-30T13:55:44.025Z,92.00
2023-03-30T13:58:16.618Z,92.50
2023-03-30T14:00:56.411Z,92.90
2023-03-30T14:03:33.608Z,92.60
2023-03-30T14:06:26.519Z,92.70
2023-03-30T14:09:05.613Z,92.70
2023-03-30T14:11:50.704Z,91.90
2023-03-30T14:14:33.962Z,91.40
2023-03-30T14:17:02.422Z,91.10
2023-03-30T14:19:33.846Z,90.50
2023-03-30T14:22:16.919Z,90.40
2023-03-30T14:24:58.049Z,89.40
2023-03-30T14:27:24.828Z,88.80
2023-03-30T14:29:52.777Z,86.90
2023-03-30T14:32:25.205Z,84.40
2023-03-30T14:34:53.852Z,80.40
2023-03-30T14:37:22.624Z,81.70
2023-03-30T14:39:55.760Z,81.50
2023-03-30T14:42:26.699Z,81.90
2023-03-30T14:44:56.851Z,81.30
2023-03-30T14:47:26.645Z,82.30
2023-03-30T14:50:00.028Z,81.90
2023-03-30T14:52:39.671Z,78.80
2023-03-30T14:55:11.509Z,78.90
2023-03-30T14:57:43.421Z,78.00
2023-03-30T15:00:22.805Z,79.30
2023-03-30T15:02:56.981Z,75.20
2023-03-30T15:05:28.792Z,75.20
2023-03-30T15:07:55.919Z,74.20
2023-03-30T15:10:35.688Z,74.20
2023-03-30T15:13:03.603Z,73.00
2023-03-30T15:15:32.644Z,71.00
2023-03-30T15:18:01.736Z,71.00
2023-03-30T15:20:31.722Z,69.30
2023-03-30T15:23:00.286Z,66.80
2023-03-30T15:25:35.276Z,65.20
2023-03-30T15:28:06.997Z,65.60
2023-03-30T15:30:40.452Z,65.80
2023-03-30T15:33:22.554Z,65.40
2023-03-30T15:35:52.576Z,64.50
2023-03-30T15:38:28.085Z,64.00
2023-03-30T15:40:54.849Z,62.90
2023-03-30T15:43:27.166Z,62.20
2023-03-30T15:46:03.009Z,62.90
2023-03-30T15:48:43.322Z,63.50
2023-03-30T15:51:25.759Z,62.80
2023-03-30T15:54:14.521Z,63.40
2023-03-30T15:57:03.889Z,63.80
2023-03-30T15:59:52.752Z,64.20
2023-03-30T16:02:35.770Z,63.20
2023-03-30T16:05:04.589Z,62.90
2023-03-30T16:07:32.307Z,63.30
2023-03-30T16:09:59.111Z,62.40
2023-03-30T16:12:28.217Z,63.10
2023-03-30T16:14:56.379Z,62.50
2023-03-30T16:17:23.174Z,61.50
2023-03-30T16:19:49.950Z,61.50
2023-03-30T16:22:16.781Z,61.80
2023-03-30T16:24:43.561Z,62.00
2023-03-30T16:27:13.332Z,63.30
2023-03-30T16:29:40.396Z,63.00
2023-03-30T16:32:07.590Z,63.50
2023-03-30T16:34:34.515Z,63.90
2023-03-30T16:37:02.035Z,64.20
2023-03-30T16:39:33.942Z,64.60
2023-03-30T16:42:00.877Z,64.40
2023-03-30T16:44:27.798Z,64.50
2023-03-30T16:46:54.567Z,65.40
2023-03-30T16:49:23.598Z,65.50
2023-03-30T16:51:51.679Z,65.90
2023-03-30T16:54:30.450Z,66.40
2023-03-30T16:56:59.216Z,67.10
2023-03-30T16:59:29.251Z,67.40
2023-03-30T17:01:56.503Z,67.70
2023-03-30T17:04:23.394Z,66.70
2023-03-30T17:06:50.316Z,66.40
2023-03-30T17:09:19.536Z,66.50
2023-03-30T17:11:47.993Z,65.70
2023-03-30T17:14:16.264Z,65.90
2023-03-30T17:16:43.244Z,65.50
2023-03-30T17:19:14.005Z,65.80
2023-03-30T17:21:42.996Z,65.30
2023-03-30T17:24:11.232Z,65.40
2023-03-30T17:26:38.729Z,66.10
2023-03-30T17:29:05.846Z,66.50
2023-03-30T17:31:32.783Z,66.40
2023-03-30T17:33:59.691Z,66.60
2023-03-30T17:36:28.665Z,67.00
2023-03-30T17:38:56.470Z,67.60
2023-03-30T17:41:23.543Z,67.90
2023-03-30T17:43:50.291Z,68.60
2023-03-30T17:46:18.878Z,68.90
2023-03-30T17:48:45.719Z,67.90
2023-03-30T17:51:12.823Z,68.10
2023-03-30T17:53:39.599Z,68.30
2023-03-30T17:56:06.693Z,68.40
2023-03-30T17:58:36.474Z,68.70
2023-03-30T18:01:08.402Z,69.20
2023-03-30T18:03:38.453Z,69.10
2023-03-30T18:06:06.460Z,68.60
2023-03-30T18:08:33.338Z,69.10
2023-03-30T18:11:01.238Z,69.10
2023-03-30T18:13:29.561Z,69.30
2023-03-30T18:15:58.571Z,68.70
2023-03-30T18:18:28.162Z,68.40
2023-03-30T18:21:03.458Z,68.70
2023-03-30T18:23:33.525Z,67.80
2023-03-30T18:26:01.547Z,67.10
2023-03-30T18:28:29.218Z,67.30
2023-03-30T18:31:00.876Z,67.30
2023-03-30T18:33:28.231Z,66.70
2023-03-30T18:35:57.048Z,66.70
2023-03-30T18:38:25.255Z,66.50
2023-03-30T18:40:58.205Z,66.30
2023-03-30T18:43:26.761Z,66.10
2023-03-30T18:45:58.523Z,66.20
2023-03-30T18:48:27.760Z,65.80
2023-03-30T18:50:55.680Z,65.60
2023-03-30T18:53:29.128Z,65.90
2023-03-30T18:55:58.659Z,66.00
2023-03-30T18:58:27.954Z,66.20
2023-03-30T19:00:55.827Z,66.50
2023-03-30T19:03:24.474Z,66.40
2023-03-30T19:05:51.848Z,66.80
2023-03-30T19:08:21.098Z,67.40
2023-03-30T19:10:50.963Z,67.80
2023-03-30T19:13:19.679Z,68.60
2023-03-30T19:15:47.704Z,69.00
2023-03-30T19:18:15.329Z,69.40
2023-03-30T19:20:42.590Z,70.00
2023-03-30T19:23:14.527Z,70.30
2023-03-30T19:25:42.813Z,70.10
2023-03-30T19:28:10.016Z,70.30
2023-03-30T19:30:39.527Z,70.00
2023-03-30T19:33:08.982Z,69.00
2023-03-30T19:35:36.050Z,67.80
2023-03-30T19:38:03.232Z,67.40
2023-03-30T19:40:30.045Z,67.20
2023-03-30T19:42:56.915Z,66.70
2023-03-30T19:45:23.941Z,66.20
2023-03-30T19:47:51.625Z,65.90
2023-03-30T19:50:23.254Z,65.70
2023-03-30T19:52:51.014Z,65.30
2023-03-30T19:55:21.580Z,64.10
2023-03-30T19:57:48.390Z,62.50
2023-03-30T20:00:17.365Z,62.00
2023-03-30T20:02:47.763Z,61.50
2023-03-30T20:05:15.861Z,60.00
2023-03-30T20:07:44.599Z,59.50
2023-03-30T20:10:14.379Z,60.00
2023-03-30T20:12:41.218Z,60.00
2023-03-30T20:15:09.689Z,60.10
2023-03-30T20:17:38.202Z,59.60
2023-03-30T20:20:09.507Z,59.50
2023-03-30T20:22:37.939Z,59.30
2023-03-30T20:25:07.807Z,59.00
2023-03-30T20:27:35.547Z,58.60
2023-03-30T20:30:03.631Z,58.70
2023-03-30T20:32:30.505Z,58.40
2023-03-30T20:34:57.253Z,58.80
2023-03-30T20:37:24.042Z,58.80
2023-03-30T20:39:52.155Z,59.30
2023-03-30T20:42:26.157Z,59.40
2023-03-30T20:44:53.655Z,59.60
2023-03-30T20:47:26.189Z,59.80
2023-03-30T20:49:55.611Z,60.10
2023-03-30T20:52:23.901Z,60.90
2023-03-30T20:54:52.440Z,61.80
2023-03-30T20:57:24.949Z,61.70
2023-03-30T20:59:54.503Z,62.10
2023-03-30T21:02:21.590Z,62.90
2023-03-30T21:04:49.515Z,63.50
2023-03-30T21:07:17.652Z,64.00
2023-03-30T21:09:44.900Z,64.50
2023-03-30T21:12:11.967Z,64.90
2023-03-30T21:14:38.920Z,65.20
2023-03-30T21:17:06.189Z,65.40
2023-03-30T21:19:33.304Z,65.40
2023-03-30T21:22:01.099Z,65.80
2023-03-30T21:24:28.244Z,65.80
2023-03-30T21:26:55.504Z,65.70
2023-03-30T21:29:23.074Z,65.80
2023-03-30T21:31:50.634Z,66.10
2023-03-30T21:34:18.747Z,66.30
2023-03-30T21:36:45.886Z,66.80
2023-03-30T21:39:12.836Z,67.30
2023-03-30T21:41:39.613Z,68.60
2023-03-30T21:44:06.389Z,67.60
2023-03-30T21:46:33.163Z,67.70
2023-03-30T21:49:00.143Z,67.70
2023-03-30T21:51:29.794Z,67.70
2023-03-30T21:53:57.530Z,67.50
2023-03-30T21:56:26.765Z,67.90
2023-03-30T21:58:53.646Z,68.50
2023-03-30T22:01:23.858Z,68.60
2023-03-30T22:03:51.679Z,69.00
2023-03-30T22:06:19.472Z,69.20
2023-03-30T22:08:46.580Z,70.20
2023-03-30T22:11:16.631Z,70.70
2023-03-30T22:13:45.277Z,70.90
2023-03-30T22:16:17.061Z,71.40
2023-03-30T22:18:44.707Z,71.80
2023-03-30T22:21:17.500Z,71.90
2023-03-30T22:23:45.098Z,71.50
2023-03-30T22:26:12.643Z,71.30
2023-03-30T22:28:39.712Z,71.90
2023-03-30T22:31:11.459Z,72.90
2023-03-30T22:33:38.957Z,73.30
2023-03-30T22:36:07.230Z,75.50
2023-03-30T22:38:34.360Z,76.80
2023-03-30T22:41:07.884Z,77.10
2023-03-30T22:43:35.900Z,77.30
2023-03-30T22:46:03.843Z,78.20
2023-03-30T22:48:30.713Z,78.70
2023-03-30T22:50:58.648Z,78.50
2023-03-30T22:53:25.408Z,78.80
2023-03-30T22:55:52.113Z,78.60
2023-03-30T22:58:18.850Z,78.70
2023-03-30T23:00:45.722Z,79.20
2023-03-30T23:03:12.597Z,79.20
2023-03-30T23:05:39.413Z,78.90
2023-03-30T23:08:06.274Z,79.20
2023-03-30T23:10:33.863Z,79.20
2023-03-30T23:13:00.739Z,78.70
2023-03-30T23:15:29.272Z,78.60
2023-03-30T23:17:56.617Z,79.40
2023-03-30T23:20:23.461Z,79.90
2023-03-30T23:22:50.789Z,80.70
2023-03-30T23:25:17.779Z,79.30
2023-03-30T23:27:44.539Z,79.50
2023-03-30T23:30:11.940Z,79.20
2023-03-30T23:32:38.741Z,78.90
2023-03-30T23:35:06.642Z,78.60
2023-03-30T23:37:34.084Z,78.20
2023-03-30T23:40:03.716Z,78.30
2023-03-30T23:42:30.445Z,78.20
2023-03-30T23:44:57.109Z,78.00
2023-03-30T23:47:23.889Z,77.80
2023-03-30T23:49:50.800Z,77.20
2023-03-30T23:52:17.530Z,77.40
2023-03-30T23:54:44.200Z,76.70
2023-03-30T23:57:11.077Z,76.30
2023-03-30T23:59:37.786Z,76.50
